createdAt,value
2018-11-25T06:45:14.536Z,1.30
2018-11-25T06:47:43.047Z,1.40
2018-11-25T06:50:12.534Z,1.30
2018-11-25T06:52:40.845Z,1.30
2018-11-25T06:55:11.047Z,1.30
2018-11-25T06:57:39.875Z,1.40
2018-11-25T07:00:17.344Z,1.30
2018-11-25T07:02:45.769Z,1.30
2018-11-25T07:05:14.698Z,1.30
2018-11-25T07:07:43.105Z,1.30
2018-11-25T07:10:13.749Z,1.30
2018-11-25T07:12:42.153Z,1.30
2018-11-25T07:15:12.462Z,1.30
2018-11-25T07:17:40.833Z,1.40
2018-11-25T07:20:11.418Z,1.40
2018-11-25T07:22:39.831Z,1.40
2018-11-25T07:25:10.309Z,1.40
2018-11-25T07:27:39.058Z,1.50
2018-11-25T07:30:14.250Z,1.50
2018-11-25T07:32:42.660Z,1.50
2018-11-25T07:35:11.219Z,1.60
2018-11-25T07:37:39.854Z,1.70
2018-11-25T07:40:11.683Z,1.70
2018-11-25T07:42:40.065Z,1.80
2018-11-25T07:45:12.050Z,1.80
2018-11-25T07:47:40.783Z,2.80
2018-11-25T07:50:10.663Z,3.10
2018-11-25T07:52:46.462Z,3.10
2018-11-25T07:55:16.247Z,2.90
2018-11-25T07:57:45.392Z,2.80
2018-11-25T08:00:15.570Z,2.70
2018-11-25T08:02:44.535Z,2.60
2018-11-25T08:05:14.209Z,2.50
2018-11-25T08:07:43.172Z,2.50
2018-11-25T08:10:13.649Z,2.50
2018-11-25T08:12:42.036Z,2.50
2018-11-25T08:15:14.448Z,2.40
2018-11-25T08:17:42.872Z,2.50
2018-11-25T08:20:16.366Z,2.40
2018-11-25T08:22:44.787Z,2.40
2018-11-25T08:25:18.318Z,2.40
2018-11-25T08:27:47.077Z,2.40
2018-11-25T08:30:18.663Z,2.40
2018-11-25T08:32:47.230Z,2.40
2018-11-25T08:35:16.262Z,2.30
2018-11-25T08:37:44.654Z,2.30
2018-11-25T08:40:28.372Z,2.30
2018-11-25T08:42:57.299Z,2.40
2018-11-25T08:45:25.776Z,2.40
2018-11-25T08:47:54.585Z,2.50
2018-11-25T08:50:23.008Z,2.50
2018-11-25T08:52:52.642Z,2.50
2018-11-25T08:55:23.615Z,2.60
2018-11-25T08:57:53.749Z,2.60
2018-11-25T09:00:27.183Z,2.60
2018-11-25T09:02:56.571Z,2.60
2018-11-25T09:05:25.656Z,2.60
2018-11-25T09:07:54.606Z,2.70
2018-11-25T09:10:23.431Z,2.80
2018-11-25T09:12:56.097Z,2.80
2018-11-25T09:15:30.968Z,2.80
2018-11-25T09:17:59.865Z,2.80
2018-11-25T09:20:28.581Z,2.80
2018-11-25T09:22:57.136Z,2.80
2018-11-25T09:25:27.702Z,2.80
2018-11-25T09:27:57.349Z,2.80
2018-11-25T09:30:27.860Z,2.80
2018-11-25T09:32:57.483Z,2.80
2018-11-25T09:35:25.939Z,2.80
2018-11-25T09:37:54.881Z,2.80
2018-11-25T09:40:24.721Z,2.90
2018-11-25T09:42:53.707Z,2.90
2018-11-25T09:45:22.647Z,2.90
2018-11-25T09:47:51.740Z,2.90
2018-11-25T09:50:21.959Z,2.90
2018-11-25T09:52:51.030Z,3.00
2018-11-25T09:55:23.809Z,3.00
2018-11-25T09:57:56.649Z,3.10
2018-11-25T10:00:26.601Z,3.10
2018-11-25T10:02:55.585Z,3.10
2018-11-25T10:05:24.523Z,3.20
2018-11-25T10:07:53.163Z,3.20
2018-11-25T10:10:22.762Z,3.30
2018-11-25T10:12:51.756Z,3.30
2018-11-25T10:15:22.681Z,3.40
2018-11-25T10:17:59.039Z,3.40
2018-11-25T10:20:23.988Z,3.40
2018-11-25T10:22:52.397Z,3.40
2018-11-25T10:25:21.091Z,3.50
2018-11-25T10:27:49.774Z,3.50
2018-11-25T10:30:20.285Z,3.40
2018-11-25T10:32:51.036Z,3.50
2018-11-25T10:35:19.665Z,3.50
2018-11-25T10:37:48.158Z,3.50
2018-11-25T10:40:19.892Z,3.60
2018-11-25T10:42:48.626Z,3.60
2018-11-25T10:45:18.551Z,3.70
2018-11-25T10:47:47.523Z,3.70
2018-11-25T10:50:18.355Z,3.80
2018-11-25T10:52:47.370Z,3.80
2018-11-25T10:55:18.166Z,3.90
2018-11-25T10:57:48.028Z,3.90
2018-11-25T11:00:29.994Z,3.90
2018-11-25T11:03:04.110Z,4.00
2018-11-25T11:05:37.843Z,3.90
2018-11-25T11:08:07.565Z,4.00
2018-11-25T11:10:36.425Z,4.00
2018-11-25T11:13:06.020Z,4.00
2018-11-25T11:15:34.764Z,4.00
2018-11-25T11:18:03.425Z,4.00
2018-11-25T11:20:31.924Z,4.10
2018-11-25T11:23:00.908Z,4.00
2018-11-25T11:25:30.090Z,4.00
2018-11-25T11:27:58.869Z,4.00
2018-11-25T11:30:28.480Z,4.10
2018-11-25T11:32:57.207Z,4.10
2018-11-25T11:35:26.313Z,4.10
2018-11-25T11:37:55.024Z,4.20
2018-11-25T11:40:24.006Z,4.20
2018-11-25T11:42:52.654Z,4.20
2018-11-25T11:45:21.667Z,4.20
2018-11-25T11:47:50.117Z,4.20
2018-11-25T11:50:20.420Z,4.30
2018-11-25T11:52:48.972Z,4.30
2018-11-25T11:55:18.602Z,4.30
2018-11-25T11:57:47.906Z,4.30
2018-11-25T12:00:20.141Z,4.30
2018-11-25T12:02:49.542Z,4.40
2018-11-25T12:05:18.321Z,4.50
2018-11-25T12:07:46.790Z,4.60
2018-11-25T12:10:16.510Z,4.60
2018-11-25T12:12:45.564Z,4.60
2018-11-25T12:15:17.316Z,4.60
2018-11-25T12:17:45.730Z,4.60
2018-11-25T12:20:14.776Z,4.60
2018-11-25T12:22:43.645Z,4.70
2018-11-25T12:25:15.711Z,4.70
2018-11-25T12:27:44.410Z,4.60
2018-11-25T12:30:14.343Z,4.70
2018-11-25T12:32:47.478Z,4.70
2018-11-25T12:35:17.090Z,4.80
2018-11-25T12:37:45.914Z,4.80
2018-11-25T12:40:18.595Z,4.70
2018-11-25T12:42:49.474Z,4.80
2018-11-25T12:45:18.363Z,4.80
2018-11-25T12:47:47.149Z,4.80
2018-11-25T12:50:17.224Z,4.80
2018-11-25T12:52:45.705Z,4.80
2018-11-25T12:55:15.895Z,4.80
2018-11-25T12:57:44.917Z,4.80
2018-11-25T13:00:29.612Z,4.80
2018-11-25T13:02:58.069Z,4.80
2018-11-25T13:05:26.701Z,4.80
2018-11-25T13:07:55.478Z,4.80
2018-11-25T13:10:24.873Z,4.80
2018-11-25T13:12:53.932Z,4.80
2018-11-25T13:15:22.913Z,4.80
2018-11-25T13:17:51.309Z,4.80
2018-11-25T13:20:19.952Z,4.80
2018-11-25T13:22:49.168Z,4.80
2018-11-25T13:25:18.645Z,4.90
2018-11-25T13:27:47.924Z,4.90
2018-11-25T13:30:25.402Z,4.90
2018-11-25T13:32:56.427Z,4.90
2018-11-25T13:35:26.188Z,4.90
2018-11-25T13:37:54.601Z,4.90
2018-11-25T13:40:24.217Z,4.70
2018-11-25T13:42:52.882Z,4.70
2018-11-25T13:45:21.321Z,4.60
2018-11-25T13:47:50.036Z,4.60
2018-11-25T13:50:18.532Z,4.60
2018-11-25T13:52:46.964Z,4.60
2018-11-25T13:55:18.754Z,4.50
2018-11-25T13:57:48.065Z,4.50
2018-11-25T14:00:28.494Z,4.60
2018-11-25T14:02:56.933Z,4.50
2018-11-25T14:05:25.335Z,4.40
2018-11-25T14:07:54.541Z,4.40
2018-11-25T14:10:27.496Z,4.40
2018-11-25T14:12:56.427Z,4.40
2018-11-25T14:15:25.200Z,4.40
2018-11-25T14:17:54.189Z,4.30
2018-11-25T14:20:22.597Z,4.30
2018-11-25T14:22:51.008Z,4.30
2018-11-25T14:25:21.100Z,4.30
2018-11-25T14:27:52.242Z,4.40
2018-11-25T14:30:23.721Z,4.40
2018-11-25T14:32:52.452Z,4.40
2018-11-25T14:35:21.384Z,4.40
2018-11-25T14:37:50.374Z,4.30
2018-11-25T14:40:19.977Z,4.30
2018-11-25T14:42:48.384Z,4.30
2018-11-25T14:48:25.566Z,4.30
2018-11-25T14:51:16.262Z,4.30
2018-11-25T14:53:44.698Z,4.20
2018-11-25T14:56:13.428Z,4.20
2018-11-25T14:58:42.047Z,4.20
2018-11-25T15:01:10.507Z,4.20
2018-11-25T15:03:39.105Z,4.20
2018-11-25T15:06:07.551Z,4.30
2018-11-25T15:08:35.980Z,4.20
2018-11-25T15:11:05.078Z,4.30
2018-11-25T15:13:33.796Z,4.20
2018-11-25T15:16:03.132Z,4.30
2018-11-25T15:18:31.614Z,4.30
2018-11-25T15:21:00.374Z,4.30
2018-11-25T15:23:28.777Z,4.30
2018-11-25T15:25:57.795Z,4.30
2018-11-25T15:28:26.821Z,4.30
2018-11-25T15:30:55.467Z,4.40
2018-11-25T15:33:24.169Z,4.40
2018-11-25T15:35:53.030Z,4.40
2018-11-25T15:38:21.830Z,4.40
2018-11-25T15:40:51.163Z,4.40
2018-11-25T15:43:19.806Z,4.40
2018-11-25T15:45:48.208Z,4.40
2018-11-25T15:48:18.744Z,4.40
2018-11-25T15:50:47.750Z,4.40
2018-11-25T15:53:16.456Z,4.50
2018-11-25T15:55:46.776Z,4.50
2018-11-25T15:58:15.171Z,4.50
2018-11-25T16:00:44.340Z,4.50
2018-11-25T16:03:13.730Z,4.50
2018-11-25T16:05:44.108Z,4.50
2018-11-25T16:08:12.773Z,4.50
2018-11-25T16:10:41.697Z,4.40
2018-11-25T16:13:10.572Z,4.50
2018-11-25T16:15:39.212Z,4.40
2018-11-25T16:18:08.226Z,4.40
2018-11-25T16:20:36.636Z,4.40
2018-11-25T16:23:09.974Z,4.40
2018-11-25T16:25:48.217Z,4.40
2018-11-25T16:28:24.412Z,4.30
2018-11-25T16:30:52.846Z,4.30
2018-11-25T16:33:21.434Z,4.40
2018-11-25T16:35:50.217Z,4.40
2018-11-25T16:38:19.042Z,4.40
2018-11-25T16:40:47.532Z,4.30
2018-11-25T16:43:16.468Z,4.40
2018-11-25T16:45:45.208Z,4.40
2018-11-25T16:48:13.867Z,4.40
2018-11-25T16:50:42.583Z,4.30
2018-11-25T16:53:11.468Z,4.30
2018-11-25T16:55:40.570Z,4.20
2018-11-25T16:58:09.912Z,4.20
2018-11-25T17:00:38.375Z,4.10
2018-11-25T17:03:07.588Z,4.10
2018-11-25T17:05:40.203Z,4.20
2018-11-25T17:08:19.022Z,4.20
2018-11-25T17:10:48.047Z,4.20
2018-11-25T17:13:16.719Z,4.10
2018-11-25T17:15:45.468Z,4.10
2018-11-25T17:18:14.123Z,4.10
2018-11-25T17:20:42.859Z,4.10
2018-11-25T17:23:11.521Z,4.10
2018-11-25T17:25:40.476Z,4.10
2018-11-25T17:28:09.424Z,4.10
2018-11-25T17:30:38.495Z,4.10
2018-11-25T17:33:07.209Z,4.10
2018-11-25T17:35:35.896Z,4.00
2018-11-25T17:38:04.510Z,4.00
2018-11-25T17:40:33.200Z,4.00
2018-11-25T17:43:01.786Z,4.00
2018-11-25T17:45:31.002Z,4.00
2018-11-25T17:47:59.440Z,4.00
2018-11-25T17:50:30.514Z,4.00
2018-11-25T17:52:59.112Z,3.90
2018-11-25T17:55:28.986Z,3.90
2018-11-25T17:57:57.627Z,3.90
2018-11-25T18:01:05.744Z,3.90
2018-11-25T18:03:35.904Z,3.80
2018-11-25T18:06:04.410Z,3.80
2018-11-25T18:08:32.834Z,3.80
2018-11-25T18:11:01.322Z,3.70
2018-11-25T18:13:31.494Z,3.70
2018-11-25T18:16:02.095Z,3.70
2018-11-25T18:18:39.677Z,3.70
2018-11-25T18:21:11.136Z,3.70
2018-11-25T18:23:39.539Z,3.80
2018-11-25T18:26:07.945Z,3.80
2018-11-25T18:28:37.213Z,3.70
2018-11-25T18:31:06.969Z,3.80
2018-11-25T18:33:35.480Z,3.80
2018-11-25T18:36:03.914Z,3.70
2018-11-25T18:38:33.852Z,3.70
2018-11-25T18:41:02.284Z,3.70
2018-11-25T18:43:31.190Z,3.70
2018-11-25T18:46:00.159Z,3.70
2018-11-25T18:48:30.017Z,3.70
2018-11-25T18:50:58.465Z,3.70
2018-11-25T18:53:27.607Z,3.70
2018-11-25T18:55:56.556Z,3.70
2018-11-25T18:58:24.951Z,3.70
2018-11-25T19:01:02.370Z,3.70
2018-11-25T19:03:30.818Z,3.70
2018-11-25T19:05:59.414Z,3.70
2018-11-25T19:08:28.103Z,3.70
2018-11-25T19:10:56.830Z,3.70
2018-11-25T19:13:25.745Z,3.70
2018-11-25T19:15:54.560Z,3.70
2018-11-25T19:18:23.205Z,3.80
2018-11-25T19:20:51.648Z,3.80
2018-11-25T19:23:20.083Z,3.70
2018-11-25T19:25:48.486Z,3.70
2018-11-25T19:28:17.219Z,3.70
2018-11-25T19:30:45.970Z,3.70
2018-11-25T19:33:14.409Z,3.70
2018-11-25T19:35:43.121Z,3.70
2018-11-25T19:38:11.525Z,3.80
2018-11-25T19:40:39.961Z,3.80
2018-11-25T19:43:09.237Z,3.80
2018-11-25T19:45:37.862Z,3.70
2018-11-25T19:48:06.467Z,3.70
2018-11-25T19:50:37.020Z,3.80
2018-11-25T19:53:07.570Z,3.70
2018-11-25T19:55:36.550Z,3.70
2018-11-25T19:58:05.438Z,3.70
2018-11-25T20:00:34.867Z,3.70
2018-11-25T20:03:03.586Z,3.70
2018-11-25T20:05:32.569Z,3.60
2018-11-25T20:08:02.865Z,3.70
2018-11-25T20:10:31.489Z,3.60
2018-11-25T20:13:00.023Z,3.50
2018-11-25T20:15:28.540Z,3.50
2018-11-25T20:17:56.983Z,3.60
2018-11-25T20:20:27.218Z,3.60
2018-11-25T20:22:57.136Z,3.70
2018-11-25T20:25:25.719Z,3.70
2018-11-25T20:27:56.674Z,3.70
2018-11-25T20:30:27.828Z,3.60
2018-11-25T20:33:02.158Z,3.60
2018-11-25T20:35:31.153Z,3.70
2018-11-25T20:38:05.478Z,3.70
2018-11-25T20:40:34.012Z,3.70
2018-11-25T20:43:02.510Z,3.70
2018-11-25T20:47:39.658Z,3.70
2018-11-25T20:50:09.037Z,3.60
2018-11-25T20:52:43.168Z,3.60
2018-11-25T20:55:12.076Z,3.60
2018-11-25T20:57:40.788Z,3.60
2018-11-25T21:00:15.334Z,3.60
2018-11-25T21:02:43.743Z,3.60
2018-11-25T21:05:13.399Z,3.60
2018-11-25T21:07:42.610Z,3.60
2018-11-25T21:10:17.694Z,3.70
2018-11-25T21:12:50.800Z,3.70
2018-11-25T21:15:20.872Z,3.70
2018-11-25T21:17:49.319Z,3.70
2018-11-25T21:20:20.233Z,3.70
2018-11-25T21:22:48.829Z,3.70
2018-11-25T21:25:21.854Z,3.60
2018-11-25T21:27:50.683Z,3.60
2018-11-25T21:30:23.806Z,3.60
2018-11-25T21:32:53.854Z,3.60
2018-11-25T21:35:22.675Z,3.60
2018-11-25T21:37:51.105Z,3.60
2018-11-25T21:40:22.022Z,3.60
2018-11-25T21:42:50.646Z,3.60
2018-11-25T21:45:20.150Z,3.60
2018-11-25T21:47:49.884Z,3.60
2018-11-25T21:50:23.781Z,3.60
2018-11-25T21:52:52.468Z,3.60
2018-11-25T21:55:21.981Z,3.50
2018-11-25T21:57:50.648Z,3.60
2018-11-25T22:00:21.155Z,3.60
2018-11-25T22:02:49.949Z,3.60
2018-11-25T22:05:20.069Z,3.60
2018-11-25T22:07:48.544Z,3.50
2018-11-25T22:10:18.468Z,3.50
2018-11-25T22:12:47.505Z,3.50
2018-11-25T22:15:18.877Z,3.40
2018-11-25T22:17:47.479Z,3.40
2018-11-25T22:20:16.824Z,3.40
2018-11-25T22:22:45.549Z,3.40
2018-11-25T22:25:17.335Z,3.40
2018-11-25T22:27:45.982Z,3.30
2018-11-25T22:30:22.942Z,3.30
